Circle Line Brooklyn — WDE8160 — position and weather

sailwx.info

Track history (hours):
 
Tides and Currents Weather Stations Pressure Air Temp Water Temp Dewpoint Dewpoint Depression Visibility Wind Speed Wind Dir Waves Ship Positions

Circle Line Brooklyn

Owner: Circle Line Sight Seeing Yachts Inc., New York, NY. More information available from US FCC via Universal Licensing System and Coast Guard Vessel Documentation Center.

Last reported at 2017-Jan-19 21:33 UTC. Time now 2017-Jan-20 05:54 UTC.
Position N 40°42' W 074°01'.

MMSI: 367402250.

Date/timePositionNaut miles runAvg speedWind from/ knotsBaromVisibWave heightAir tempDewpointWater temp
2017-Jan-19 21:33N 40°42' W 074°01'4 4.0
2017-Jan-19 20:33N 40°46' W 074°00'0 0.0
2017-Jan-19 19:33N 40°46' W 074°00'3 1.9
2017-Jan-19 18:05N 40°46' W 073°57'712.9
2017-Jan-19 17:33N 40°41' W 074°02'5 4.8
2017-Jan-19 16:33N 40°46' W 074°00'5 4.9
2017-Jan-19 15:33N 40°41' W 074°03'5 4.9
2017-Jan-19 14:33N 40°46' W 074°00'0 0.0
2017-Jan-19 13:33N 40°46' W 074°00'4 0.2
2017-Jan-18 21:34N 40°42' W 074°01'4 3.9
2017-Jan-18 20:33N 40°46' W 074°00'0 0.0
2017-Jan-18 19:32N 40°46' W 074°00'2 1.6
2017-Jan-18 18:04N 40°46' W 073°57'612.4
2017-Jan-18 17:33N 40°41' W 074°03'5 4.9
2017-Jan-18 16:33N 40°46' W 074°00'5 5.1
2017-Jan-18 15:33N 40°41' W 074°03'5 4.9
2017-Jan-18 14:32N 40°46' W 074°00'0 0.0
2017-Jan-18 13:32N 40°46' W 074°00'4 0.2
2017-Jan-17 21:33N 40°42' W 074°01'4 3.9
2017-Jan-17 20:33N 40°46' W 074°00'0 0.0
2017-Jan-17 19:31N 40°46' W 074°00'2 1.7
2017-Jan-17 18:06N 40°46' W 073°57'611.7
2017-Jan-17 17:33N 40°41' W 074°03'5 4.8
2017-Jan-17 16:32N 40°46' W 074°00'5 5.2
2017-Jan-17 15:33N 40°41' W 074°03'5 5.0
2017-Jan-17 14:33N 40°46' W 074°00'0 0.0
2017-Jan-17 13:33N 40°46' W 074°00'0 0.0
2017-Jan-17 12:33N 40°46' W 074°00'0 0.0
2017-Jan-16 22:26N 40°46' W 074°00'4 4.2
2017-Jan-16 21:34N 40°42' W 074°00'4 3.6
2017-Jan-16 20:33N 40°46' W 074°00'0 0.0
2017-Jan-16 19:33N 40°46' W 074°00'5 4.1
2017-Jan-16 18:24N 40°49' W 073°56'1011.3
2017-Jan-16 17:33N 40°41' W 074°03'5 4.9
2017-Jan-16 16:33N 40°46' W 074°00'4 4.4
2017-Jan-16 15:33N 40°42' W 074°02'4 4.2
2017-Jan-16 14:30N 40°46' W 074°00'  
Track history (hours):
 
Tides and Currents Weather Stations Pressure Air Temp Water Temp Dewpoint Dewpoint Depression Visibility Wind Speed Wind Dir Waves Ship Positions

Circle Line Brooklyn

Owner: Circle Line Sight Seeing Yachts Inc., New York, NY. More information available from US FCC via Universal Licensing System and Coast Guard Vessel Documentation Center.

Last reported at 2017-Jan-19 21:33 UTC. Time now 2017-Jan-20 05:54 UTC.
Position N 40°42' W 074°01'.

MMSI: 367402250.

Date/timePositionNaut miles runAvg speedWind from/ knotsBaromVisibWave heightAir tempDewpointWater temp
2017-Jan-19 21:33N 40°42' W 074°01'4 4.0
2017-Jan-19 20:33N 40°46' W 074°00'0 0.0
2017-Jan-19 19:33N 40°46' W 074°00'3 1.9
2017-Jan-19 18:05N 40°46' W 073°57'712.9
2017-Jan-19 17:33N 40°41' W 074°02'5 4.8
2017-Jan-19 16:33N 40°46' W 074°00'5 4.9
2017-Jan-19 15:33N 40°41' W 074°03'5 4.9
2017-Jan-19 14:33N 40°46' W 074°00'0 0.0
2017-Jan-19 13:33N 40°46' W 074°00'4 0.2
2017-Jan-18 21:34N 40°42' W 074°01'4 3.9
2017-Jan-18 20:33N 40°46' W 074°00'0 0.0
2017-Jan-18 19:32N 40°46' W 074°00'2 1.6
2017-Jan-18 18:04N 40°46' W 073°57'612.4
2017-Jan-18 17:33N 40°41' W 074°03'5 4.9
2017-Jan-18 16:33N 40°46' W 074°00'5 5.1
2017-Jan-18 15:33N 40°41' W 074°03'5 4.9
2017-Jan-18 14:32N 40°46' W 074°00'0 0.0
2017-Jan-18 13:32N 40°46' W 074°00'4 0.2
2017-Jan-17 21:33N 40°42' W 074°01'4 3.9
2017-Jan-17 20:33N 40°46' W 074°00'0 0.0
2017-Jan-17 19:31N 40°46' W 074°00'2 1.7
2017-Jan-17 18:06N 40°46' W 073°57'611.7
2017-Jan-17 17:33N 40°41' W 074°03'5 4.8
2017-Jan-17 16:32N 40°46' W 074°00'5 5.2
2017-Jan-17 15:33N 40°41' W 074°03'5 5.0
2017-Jan-17 14:33N 40°46' W 074°00'0 0.0
2017-Jan-17 13:33N 40°46' W 074°00'0 0.0
2017-Jan-17 12:33N 40°46' W 074°00'0 0.0
2017-Jan-16 22:26N 40°46' W 074°00'4 4.2
2017-Jan-16 21:34N 40°42' W 074°00'4 3.6
2017-Jan-16 20:33N 40°46' W 074°00'0 0.0
2017-Jan-16 19:33N 40°46' W 074°00'5 4.1
2017-Jan-16 18:24N 40°49' W 073°56'1011.3
2017-Jan-16 17:33N 40°41' W 074°03'5 4.9
2017-Jan-16 16:33N 40°46' W 074°00'4 4.4
2017-Jan-16 15:33N 40°42' W 074°02'4 4.2
2017-Jan-16 14:30N 40°46' W 074°00'  

Dump ship's entire track history